Otisco, New York
Current Conditions -  °F | °C
As of 3:15 PM on Friday 24 Oct 2014 (Local Time) from KN03 Reporting Station
Clear Clear  
Wind Chill: 59°   Ceiling: Unl
Heat Index: 59°   Visibility: 10mi
Dew Point: 39°   Wind: 8mph
Humidity: 48%   Direction: 300°WNW
Pressure: 29.9"   Gusts: NA
Location:  42.8002°N, 76.1123°W
Report Text: KN03 241915Z AUTO 30007KT 10SM CLR 15/04 A2990 RMK AO2
Loading
Personal Weather Stations






























Interactive Weather Map
Tropical Storm Tracking
New forecast layout! Learn more

10-Day Weather Forecast

Advertisements
Track Severe Weather on mobile